Time;durP1;ratioP1;P1;durP2;ratioP2;P2;SDS_P1;SDS_P2;PMS_P1;PMS_P2;Temp;Humidity;BMP_temperature;BMP_pressure;BME280_temperature;BME280_humidity;BME280_pressure;Samples;Min_cycle;Max_cycle;Signal;HPM_P1;HPM_P2
2022/03/11 00:02:00;;;;;;;16.15;11.70;;;;;;;;;;4786411;29;20593;-74
2022/03/11 00:04:26;;;;;;;15.95;11.60;;;;;;;;;;4787426;29;20592;-75
2022/03/11 00:07:10;;;;;;;17.27;11.50;;;;;;;;;;4800999;29;20431;-75
2022/03/11 00:09:36;;;;;;;16.42;11.60;;;;;;;;;;4783687;29;20428;-74
2022/03/11 00:12:02;;;;;;;16.27;11.82;;;;;;;;;;4817709;29;20435;-74
2022/03/11 00:14:29;;;;;;;15.63;11.32;;;;;;;;;;4787026;29;20427;-74
2022/03/11 00:16:55;;;;;;;20.33;12.25;;;;;;;;;;4825233;29;20440;-74
2022/03/11 00:19:21;;;;;;;17.27;11.75;;;;;;;;;;4786415;29;20800;-75
2022/03/11 00:21:47;;;;;;;17.58;11.38;;;;;;;;;;4787686;29;20431;-75
2022/03/11 00:24:13;;;;;;;17.00;11.50;;;;;;;;;;4802073;29;20474;-75
2022/03/11 00:26:39;;;;;;;17.50;12.07;;;;;;;;;;4758636;29;20437;-75
2022/03/11 00:29:05;;;;;;;20.02;11.55;;;;;;;;;;4791893;29;20438;-75
2022/03/11 00:31:31;;;;;;;16.23;11.70;;;;;;;;;;4783433;29;20498;-74
2022/03/11 00:33:58;;;;;;;15.55;11.30;;;;;;;;;;4788561;29;20436;-75
2022/03/11 00:36:25;;;;;;;15.70;11.32;;;;;;;;;;4790571;29;20823;-75
2022/03/11 00:38:51;;;;;;;16.93;11.10;;;;;;;;;;4817582;29;20423;-75
2022/03/11 00:41:17;;;;;;;14.80;10.95;;;;;;;;;;4771582;29;20935;-74
2022/03/11 00:43:44;;;;;;;18.47;11.83;;;;;;;;;;4800394;29;20434;-74
2022/03/11 00:46:10;;;;;;;15.73;10.57;;;;;;;;;;4801056;29;20445;-74
2022/03/11 00:48:36;;;;;;;14.27;10.55;;;;;;;;;;4787673;29;20455;-74
2022/03/11 00:51:03;;;;;;;13.97;10.53;;;;;;;;;;4817816;29;20427;-74
2022/03/11 00:53:29;;;;;;;14.55;10.50;;;;;;;;;;4811020;29;20423;-74
2022/03/11 00:55:55;;;;;;;16.20;11.23;;;5.80;99.90;;;;;;4786485;29;20552;-74
2022/03/11 00:58:21;;;;;;;16.10;10.60;;;;;;;;;;4787084;29;20435;-74
2022/03/11 01:00:47;;;;;;;16.08;10.80;;;;;;;;;;4791285;29;20425;-74
2022/03/11 01:03:13;;;;;;;15.65;10.23;;;6.00;99.90;;;;;;4772405;29;20485;-74
2022/03/11 01:05:39;;;;;;;17.60;11.10;;;;;;;;;;4789402;29;20583;-74
2022/03/11 01:08:06;;;;;;;18.25;10.48;;;;;;;;;;4775458;29;20423;-74
2022/03/11 01:10:32;;;;;;;15.80;10.20;;;;;;;;;;4787742;29;20463;-74
2022/03/11 01:12:58;;;;;;;15.50;10.48;;;;;;;;;;4819884;29;20424;-74
2022/03/11 01:15:24;;;;;;;13.68;10.20;;;;;;;;;;4825021;29;20778;-74
2022/03/11 01:17:50;;;;;;;16.33;10.25;;;;;;;;;;4797040;29;20423;-74
2022/03/11 01:20:16;;;;;;;15.32;10.15;;;;;;;;;;4786640;29;20432;-74
2022/03/11 01:22:42;;;;;;;14.45;9.82;;;;;;;;;;4783675;29;20504;-74
2022/03/11 01:25:09;;;;;;;15.65;9.65;;;;;;;;;;4789927;29;20531;-73
2022/03/11 01:27:36;;;;;;;15.33;10.10;;;;;;;;;;4810707;29;20606;-73
2022/03/11 01:30:05;;;;;;;13.95;9.77;;;5.30;99.90;;;;;;4786313;29;20433;-74
2022/03/11 01:32:31;;;;;;;14.88;9.82;;;;;;;;;;4776021;29;20947;-73
2022/03/11 01:34:57;;;;;;;15.05;9.98;;;;;;;;;;4793086;29;20423;-73
2022/03/11 01:37:23;;;;;;;15.60;9.90;;;;;;;;;;4783293;29;20438;-74
2022/03/11 01:39:50;;;;;;;14.77;9.50;;;;;;;;;;4804497;29;20460;-74
2022/03/11 01:42:16;;;;;;;15.07;9.57;;;;;;;;;;4790541;29;21038;-74
2022/03/11 01:44:42;;;;;;;15.30;10.02;;;;;;;;;;4799951;29;20447;-74
2022/03/11 01:47:08;;;;;;;13.60;9.25;;;;;;;;;;4792394;29;20427;-74
2022/03/11 01:49:34;;;;;;;12.85;9.07;;;;;;;;;;4774062;29;20428;-74
2022/03/11 01:52:01;;;;;;;14.35;9.18;;;;;;;;;;4778504;29;20512;-81
2022/03/11 01:54:27;;;;;;;13.73;9.77;;;;;;;;;;4792787;29;20514;-81
2022/03/11 01:56:53;;;;;;;13.63;8.80;;;;;;;;;;4789348;29;20439;-81
2022/03/11 01:59:20;;;;;;;18.17;9.45;;;;;;;;;;4803966;29;20430;-81
2022/03/11 02:01:46;;;;;;;14.77;9.57;;;;;;;;;;4791129;29;20429;-81
2022/03/11 02:04:12;;;;;;;15.83;9.23;;;;;;;;;;4789804;29;20935;-81
2022/03/11 02:06:38;;;;;;;12.48;8.95;;;;;;;;;;4805113;29;20423;-81
2022/03/11 02:09:06;;;;;;;19.70;9.73;;;;;;;;;;4787815;29;20424;-81
2022/03/11 02:11:32;;;;;;;14.35;8.95;;;;;;;;;;4789374;29;20431;-81
2022/03/11 02:13:59;;;;;;;15.10;9.45;;;5.10;99.90;;;;;;4789617;29;20434;-81
2022/03/11 02:16:26;;;;;;;12.43;9.13;;;;;;;;;;4774614;29;20434;-82
2022/03/11 02:18:52;;;;;;;16.88;9.57;;;;;;;;;;4789410;29;20493;-82
2022/03/11 02:21:19;;;;;;;15.45;9.40;;;4.80;99.90;;;;;;4773031;29;20991;-82
2022/03/11 02:23:46;;;;;;;16.15;9.23;;;;;;;;;;4831505;29;20511;-82
2022/03/11 02:26:14;;;;;;;13.23;9.47;;;5.00;99.90;;;;;;4788885;29;20471;-83
2022/03/11 02:28:40;;;;;;;13.00;9.70;;;;;;;;;;4768197;30;20464;-82
2022/03/11 02:31:06;;;;;;;13.75;10.20;;;;;;;;;;4812612;29;20435;-83
2022/03/11 02:33:32;;;;;;;13.93;9.90;;;;;;;;;;4803340;29;20483;-82
2022/03/11 02:35:59;;;;;;;15.50;9.75;;;;;;;;;;4789752;29;20491;-83
2022/03/11 02:38:25;;;;;;;14.93;10.02;;;;;;;;;;4795608;29;20437;-82
2022/03/11 02:40:52;;;;;;;15.33;10.40;;;;;;;;;;4787933;29;20447;-82
2022/03/11 02:43:18;;;;;;;16.80;10.20;;;;;;;;;;4774692;29;20437;-82
2022/03/11 02:45:44;;;;;;;15.30;10.40;;;;;;;;;;4790402;29;20454;-83
2022/03/11 02:48:10;;;;;;;15.88;10.88;;;;;;;;;;4788409;29;20991;-82
2022/03/11 02:50:36;;;;;;;17.63;10.93;;;;;;;;;;4788829;29;20780;-82
2022/03/11 02:53:02;;;;;;;17.73;11.10;;;;;;;;;;4759743;29;20423;-81
2022/03/11 02:55:28;;;;;;;18.25;11.00;;;;;;;;;;4788402;29;20431;-82
2022/03/11 02:57:54;;;;;;;15.48;11.45;;;;;;;;;;4774130;29;20433;-81
2022/03/11 03:00:21;;;;;;;14.50;11.00;;;;;;;;;;4791521;29;20788;-81
2022/03/11 03:02:47;;;;;;;17.83;11.55;;;;;;;;;;4780371;29;20463;-81
2022/03/11 03:05:15;;;;;;;17.23;11.70;;;;;;;;;;4788736;29;20447;-81
2022/03/11 03:07:42;;;;;;;15.50;11.97;;;;;;;;;;4818553;29;20440;-81
2022/03/11 03:10:10;;;;;;;19.45;12.52;;;4.70;99.90;;;;;;4786717;29;20439;-81
2022/03/11 03:12:37;;;;;;;19.42;12.52;;;;;;;;;;4768841;29;20516;-81
2022/03/11 03:15:04;;;;;;;17.60;12.77;;;;;;;;;;4792853;29;20516;-81
2022/03/11 03:17:30;;;;;;;18.20;12.48;;;;;;;;;;4802690;29;20508;-80
2022/03/11 03:19:56;;;;;;;18.50;11.75;;;;;;;;;;4768794;30;20472;-81
2022/03/11 03:22:22;;;;;;;19.13;12.40;;;4.80;99.90;;;;;;4786106;29;20565;-81
2022/03/11 03:24:49;;;;;;;17.20;12.60;;;;;;;;;;4821129;29;20483;-82
2022/03/11 03:27:15;;;;;;;20.05;12.82;;;;;;;;;;4758787;29;20463;-81
2022/03/11 03:29:42;;;;;;;20.08;12.93;;;;;;;;;;4826112;29;20426;-82
2022/03/11 03:32:08;;;;;;;20.85;13.18;;;;;;;;;;4792114;29;20500;-81
2022/03/11 03:34:35;;;;;;;18.52;13.32;;;4.40;99.90;;;;;;4773695;29;20435;-81
2022/03/11 03:37:03;;;;;;;19.70;13.60;;;;;;;;;;4780678;29;20521;-81
2022/03/11 03:39:29;;;;;;;21.02;13.60;;;;;;;;;;4775338;29;20427;-81
2022/03/11 03:41:57;;;;;;;18.92;13.75;;;4.40;99.90;;;;;;4772243;29;20493;-81
2022/03/11 03:44:23;;;;;;;21.38;14.32;;;;;;;;;;4789957;29;20432;-81
2022/03/11 03:46:49;;;;;;;19.93;14.17;;;4.50;99.90;;;;;;4803573;29;20534;-81
2022/03/11 03:49:15;;;;;;;22.05;14.05;;;;;;;;;;4787729;29;20518;-81
2022/03/11 03:51:42;;;;;;;21.20;13.80;;;;;;;;;;4788933;29;20435;-81
2022/03/11 03:54:11;;;;;;;19.67;13.97;;;4.40;99.90;;;;;;4795014;29;20475;-81
2022/03/11 03:56:37;;;;;;;20.45;13.60;;;;;;;;;;4777264;29;20502;-81
2022/03/11 03:59:07;;;;;;;23.55;14.70;;;;;;;;;;4792723;29;20956;-81
2022/03/11 04:01:34;;;;;;;28.23;15.18;;;;;;;;;;4787210;29;20427;-81
2022/03/11 04:04:00;;;;;;;21.38;14.88;;;;;;;;;;4758739;29;20434;-81
2022/03/11 04:06:28;;;;;;;22.50;15.05;;;;;;;;;;4803111;29;20451;-80
2022/03/11 04:08:56;;;;;;;21.90;14.93;;;;;;;;;;4802871;29;20431;-81
2022/03/11 04:11:23;;;;;;;21.17;15.30;;;;;;;;;;4786949;29;20438;-81
2022/03/11 04:13:50;;;;;;;22.02;15.35;;;;;;;;;;4785345;29;20477;-81
2022/03/11 04:16:16;;;;;;;22.40;15.35;;;;;;;;;;4808110;29;20428;-81
2022/03/11 04:18:42;;;;;;;21.63;16.13;;;;;;;;;;4772999;29;20431;-82
2022/03/11 04:21:08;;;;;;;23.23;15.48;;;;;;;;;;4772382;29;20427;-81
2022/03/11 04:23:35;;;;;;;22.60;15.57;;;;;;;;;;4787682;29;20935;-81
2022/03/11 04:26:01;;;;;;;23.42;16.40;;;;;;;;;;4798752;29;20450;-81
2022/03/11 04:28:27;;;;;;;22.60;16.05;;;;;;;;;;4809639;29;20480;-81
2022/03/11 04:30:53;;;;;;;24.48;16.83;;;;;;;;;;4788693;29;20484;-82
2022/03/11 04:33:20;;;;;;;24.75;17.40;;;;;;;;;;4760865;29;20454;-81
2022/03/11 04:35:46;;;;;;;24.13;17.23;;;;;;;;;;4767816;30;20436;-74
2022/03/11 04:38:12;;;;;;;23.23;16.70;;;;;;;;;;4830449;29;20441;-74
2022/03/11 04:40:38;;;;;;;26.42;17.25;;;;;;;;;;4785699;29;20435;-74
2022/03/11 04:43:04;;;;;;;24.75;17.00;;;;;;;;;;4793963;29;20433;-74
2022/03/11 04:45:31;;;;;;;25.00;17.45;;;;;;;;;;4824483;29;20472;-74
2022/03/11 04:47:57;;;;;;;24.85;17.27;;;;;;;;;;4790058;29;20999;-74
2022/03/11 04:50:23;;;;;;;24.23;17.45;;;;;;;;;;4817866;29;20427;-75
2022/03/11 04:52:49;;;;;;;28.05;18.23;;;;;;;;;;4778811;29;20428;-74
2022/03/11 04:55:16;;;;;;;26.55;18.25;;;;;;;;;;4795194;29;20431;-74
2022/03/11 04:57:42;;;;;;;25.27;17.33;;;;;;;;;;4794026;29;20465;-75
2022/03/11 05:00:09;;;;;;;25.83;18.58;;;;;;;;;;4794424;29;20859;-76
2022/03/11 05:02:35;;;;;;;26.08;18.55;;;;;;;;;;4795637;29;20432;-76
2022/03/11 05:05:05;;;;;;;27.13;18.33;;;;;;;;;;4782455;29;20496;-75
2022/03/11 05:07:31;;;;;;;27.90;18.50;;;;;;;;;;4775777;29;20516;-75
2022/03/11 05:09:58;;;;;;;26.23;18.42;;;;;;;;;;4760071;29;20451;-75
2022/03/11 05:12:24;;;;;;;25.95;18.15;;;;;;;;;;4770718;29;20778;-74
2022/03/11 05:14:50;;;;;;;27.25;18.45;;;;;;;;;;4798800;29;20470;-75
2022/03/11 05:17:17;;;;;;;25.35;18.10;;;;;;;;;;4804253;29;20426;-75
2022/03/11 05:19:43;;;;;;;26.60;18.23;;;;;;;;;;4788439;29;20514;-75
2022/03/11 05:22:09;;;;;;;26.42;18.98;;;;;;;;;;4805846;29;20434;-75
2022/03/11 05:24:35;;;;;;;27.38;19.00;;;3.60;99.90;;;;;;4813403;29;20526;-75
2022/03/11 05:27:02;;;;;;;26.08;18.48;;;;;;;;;;4770040;29;20438;-75
2022/03/11 05:29:29;;;;;;;26.77;18.35;;;;;;;;;;4790244;29;20434;-79
2022/03/11 05:31:55;;;;;;;28.70;19.38;;;;;;;;;;4805091;29;20420;-78
2022/03/11 05:34:21;;;;;;;29.02;19.33;;;;;;;;;;4790449;29;20426;-79
2022/03/11 05:36:47;;;;;;;27.10;18.85;;;;;;;;;;4805652;29;20764;-79
2022/03/11 05:39:13;;;;;;;26.17;19.35;;;;;;;;;;4797906;29;20792;-79
2022/03/11 05:41:39;;;;;;;27.85;19.13;;;;;;;;;;4819603;29;20797;-79
2022/03/11 05:44:06;;;;;;;24.67;17.48;;;;;;;;;;4820809;29;20430;-78
2022/03/11 05:46:32;;;;;;;24.73;18.42;;;;;;;;;;4806084;29;20455;-78
2022/03/11 05:48:58;;;;;;;26.77;18.90;;;;;;;;;;4790210;29;20470;-78
2022/03/11 05:51:24;;;;;;;30.92;19.10;;;;;;;;;;4776823;29;20433;-78
2022/03/11 05:53:50;;;;;;;26.85;19.50;;;;;;;;;;4796079;29;20457;-78
2022/03/11 05:56:16;;;;;;;27.95;19.73;;;;;;;;;;4784933;29;20427;-79
2022/03/11 05:58:42;;;;;;;27.25;19.73;;;;;;;;;;4790126;29;21011;-79
2022/03/11 06:01:08;;;;;;;27.70;19.55;;;;;;;;;;4804203;29;20806;-78
2022/03/11 06:03:34;;;;;;;30.55;19.65;;;;;;;;;;4784947;29;20433;-78
2022/03/11 06:06:00;;;;;;;27.20;19.13;;;;;;;;;;4772333;29;20530;-79
2022/03/11 06:08:26;;;;;;;27.00;20.30;;;;;;;;;;4791651;29;20427;-80
2022/03/11 06:10:53;;;;;;;27.25;19.42;;;;;;;;;;4789044;29;20765;-79
2022/03/11 06:13:19;;;;;;;29.65;20.23;;;;;;;;;;4804873;29;20507;-79
2022/03/11 06:15:45;;;;;;;28.77;19.00;;;;;;;;;;4789125;29;20510;-79
2022/03/11 06:18:15;;;;;;;26.77;20.30;;;;;;;;;;4773154;29;20928;-76
2022/03/11 06:20:41;;;;;;;29.27;19.50;;;;;;;;;;4812676;29;20431;-75
2022/03/11 06:23:08;;;;;;;28.92;19.17;;;;;;;;;;4788860;29;20432;-75
2022/03/11 06:25:34;;;;;;;29.00;20.30;;;;;;;;;;4788614;29;20898;-76
2022/03/11 06:28:00;;;;;;;26.58;18.73;;;;;;;;;;4790405;29;20472;-76
2022/03/11 06:30:26;;;;;;;29.53;19.57;;;;;;;;;;4788718;29;20988;-75
2022/03/11 06:32:52;;;;;;;27.55;20.02;;;;;;;;;;4802619;29;20443;-75
2022/03/11 06:35:19;;;;;;;27.33;20.23;;;;;;;;;;4793099;29;21292;-76
2022/03/11 06:37:46;;;;;;;27.08;19.08;;;3.50;99.90;;;;;;4803383;29;20439;-80
2022/03/11 06:40:13;;;;;;;28.08;19.88;;;;;;;;;;4822061;29;20488;-79
2022/03/11 06:42:40;;;;;;;29.00;18.75;;;;;;;;;;4771157;30;20486;-79
2022/03/11 06:45:06;;;;;;;26.00;18.75;;;;;;;;;;4800830;29;20482;-76
2022/03/11 06:47:33;;;;;;;27.13;19.13;;;;;;;;;;4815481;29;20423;-76
2022/03/11 06:49:59;;;;;;;26.35;18.73;;;;;;;;;;4774412;29;20434;-76
2022/03/11 06:52:25;;;;;;;26.40;19.92;;;;;;;;;;4770956;30;20440;-76
2022/03/11 06:54:51;;;;;;;27.73;19.30;;;;;;;;;;4774212;29;20431;-76
2022/03/11 06:57:18;;;;;;;28.77;19.35;;;;;;;;;;4773106;29;20429;-76
2022/03/11 06:59:45;;;;;;;25.67;18.73;;;;;;;;;;4775029;30;20469;-76
2022/03/11 07:02:11;;;;;;;26.75;19.55;;;;;;;;;;4766512;30;20434;-76
2022/03/11 07:04:37;;;;;;;27.83;19.25;;;;;;;;;;4758833;30;20453;-79
2022/03/11 07:07:03;;;;;;;27.58;19.10;;;4.00;99.90;;;;;;4790260;29;20468;-79
2022/03/11 07:09:29;;;;;;;28.17;19.60;;;;;;;;;;4769824;29;20433;-80
2022/03/11 07:11:57;;;;;;;26.35;19.33;;;;;;;;;;4790695;29;20471;-80
2022/03/11 07:14:27;;;;;;;27.20;20.75;;;;;;;;;;4741668;30;20477;-80
2022/03/11 07:16:53;;;;;;;27.55;19.88;;;;;;;;;;4780005;29;20424;-79
2022/03/11 07:19:20;;;;;;;28.35;19.13;;;;;;;;;;4799402;29;20436;-77
2022/03/11 07:21:46;;;;;;;24.73;18.55;;;;;;;;;;4790616;29;20436;-76
2022/03/11 07:24:12;;;;;;;26.77;18.95;;;;;;;;;;4772946;29;20523;-77
2022/03/11 07:26:38;;;;;;;25.98;17.70;;;;;;;;;;4771203;29;20453;-80
2022/03/11 07:29:04;;;;;;;28.27;18.67;;;;;;;;;;4769768;30;20567;-80
2022/03/11 07:31:30;;;;;;;25.98;18.38;;;;;;;;;;4770013;29;20493;-82
2022/03/11 07:33:57;;;;;;;25.35;18.77;;;;;;;;;;4770881;29;20448;-81
2022/03/11 07:36:23;;;;;;;22.88;18.98;;;;;;;;;;4799895;29;20501;-80
2022/03/11 07:38:49;;;;;;;27.27;17.25;;;;;;;;;;4775775;30;20438;-80
2022/03/11 07:41:16;;;;;;;26.55;18.08;;;;;;;;;;4781191;29;20924;-81
2022/03/11 07:43:44;;;;;;;24.42;18.08;;;;;;;;;;4787827;29;20773;-79
2022/03/11 07:46:14;;;;;;;26.77;17.88;;;;;;;;;;4797422;29;20450;-81
2022/03/11 07:48:44;;;;;;;25.27;17.98;;;5.20;99.90;;;;;;4777597;29;20434;-81
2022/03/11 07:51:10;;;;;;;23.15;17.42;;;;;;;;;;4806347;29;20442;-81
2022/03/11 07:53:37;;;;;;;24.38;18.90;;;;;;;;;;4759121;29;20934;-82
2022/03/11 07:56:05;;;;;;;28.27;17.63;;;;;;;;;;4787640;29;20443;-82
2022/03/11 07:58:31;;;;;;;24.08;17.98;;;;;;;;;;4801763;29;20424;-81
2022/03/11 08:00:57;;;;;;;25.40;18.88;;;;;;;;;;4758114;29;20531;-81
2022/03/11 08:03:23;;;;;;;25.67;17.38;;;;;;;;;;4796999;29;20431;-80
2022/03/11 08:05:49;;;;;;;25.27;18.50;;;;;;;;;;4772077;29;20471;-80
2022/03/11 08:08:16;;;;;;;24.80;17.50;;;;;;;;;;4788462;29;20451;-81
2022/03/11 08:10:42;;;;;;;26.17;18.10;;;;;;;;;;4816738;29;20975;-82
2022/03/11 08:13:08;;;;;;;23.15;18.40;;;;;;;;;;4788465;29;20423;-82
2022/03/11 08:15:34;;;;;;;28.23;17.90;;;;;;;;;;4802857;29;20488;-81
2022/03/11 08:18:01;;;;;;;28.35;17.60;;;;;;;;;;4817415;29;20508;-81
2022/03/11 08:20:27;;;;;;;26.48;17.58;;;;;;;;;;4772214;29;20431;-80
2022/03/11 08:22:54;;;;;;;25.40;18.27;;;;;;;;;;4775670;29;20423;-83
2022/03/11 08:25:21;;;;;;;24.95;18.15;;;;;;;;;;4758222;29;20459;-80
2022/03/11 08:27:48;;;;;;;23.50;18.23;;;;;;;;;;4802701;29;20439;-81
2022/03/11 08:30:14;;;;;;;25.07;17.20;;;;;;;;;;4795872;29;20433;-82
2022/03/11 08:32:41;;;;;;;21.98;16.92;;;;;;;;;;4806446;29;20422;-81
2022/03/11 08:35:08;;;;;;;24.47;17.47;;;;;;;;;;4787621;29;20439;-81
2022/03/11 08:37:34;;;;;;;23.88;17.17;;;;;;;;;;4787488;29;20996;-81
2022/03/11 08:40:01;;;;;;;27.73;19.15;;;;;;;;;;4786729;29;20439;-80
2022/03/11 08:42:27;;;;;;;25.15;19.33;;;;;;;;;;4798405;29;20445;-81
2022/03/11 08:44:53;;;;;;;23.38;16.38;;;;;;;;;;4817077;29;20442;-81
2022/03/11 08:47:19;;;;;;;25.02;17.58;;;;;;;;;;4805583;29;20822;-82
2022/03/11 08:49:45;;;;;;;23.77;17.75;;;;;;;;;;4785326;29;20961;-82
2022/03/11 08:52:11;;;;;;;24.57;18.60;;;;;;;;;;4790269;29;20926;-82
2022/03/11 08:54:37;;;;;;;26.45;18.17;;;;;;;;;;4783942;30;20432;-83
2022/03/11 08:57:04;;;;;;;23.05;16.95;;;;;;;;;;4786031;29;20602;-81
2022/03/11 08:59:30;;;;;;;21.77;17.45;;;;;;;;;;4754420;29;20778;-82
2022/03/11 09:01:56;;;;;;;22.27;18.02;;;;;;;;;;4794210;29;20444;-81
2022/03/11 09:04:22;;;;;;;25.35;18.27;;;;;;;;;;4806929;29;20440;-81
2022/03/11 09:06:48;;;;;;;24.25;17.42;;;;;;;;;;4796468;29;20784;-81
2022/03/11 09:09:14;;;;;;;22.07;17.63;;;;;;;;;;4785638;29;20464;-81
2022/03/11 09:11:40;;;;;;;26.30;17.38;;;;;;;;;;4790587;29;20429;-80
2022/03/11 09:14:07;;;;;;;23.50;18.23;;;;;;;;;;4819749;29;20438;-81
2022/03/11 09:16:34;;;;;;;23.37;18.47;;;;;;;;;;4789483;29;20528;-81
2022/03/11 09:19:01;;;;;;;23.85;17.52;;;;;;;;;;4782281;29;20440;-81
2022/03/11 09:21:28;;;;;;;24.70;17.30;;;;;;;;;;4786498;29;20527;-81
2022/03/11 09:23:54;;;;;;;25.77;17.35;;;;;;;;;;4789973;29;20436;-81
2022/03/11 09:26:20;;;;;;;24.02;17.05;;;;;;;;;;4815101;29;20512;-81
2022/03/11 09:28:47;;;;;;;23.67;16.77;;;;;;;;;;4798905;29;20441;-81
2022/03/11 09:31:13;;;;;;;24.07;17.03;;;8.20;99.90;;;;;;4794906;29;20896;-80
2022/03/11 09:33:40;;;;;;;22.20;16.77;;;8.20;99.90;;;;;;4782410;29;20431;-81
2022/03/11 09:36:06;;;;;;;23.67;17.88;;;;;;;;;;4769330;30;20445;-81
2022/03/11 09:38:33;;;;;;;25.02;17.23;;;8.40;99.90;;;;;;4791084;29;20499;-81
2022/03/11 09:41:01;;;;;;;23.75;16.40;;;8.60;99.90;;;;;;4790374;29;20957;-82
2022/03/11 09:43:27;;;;;;;24.38;16.50;;;;;;;;;;4797268;29;20446;-82
2022/03/11 09:45:54;;;;;;;24.23;17.83;;;;;;;;;;4786286;29;20805;-82
2022/03/11 09:48:20;;;;;;;23.53;17.30;;;;;;;;;;4787347;29;20431;-82
2022/03/11 09:50:47;;;;;;;24.02;17.30;;;;;;;;;;4773343;29;20921;-82
2022/03/11 09:53:14;;;;;;;24.00;17.55;;;;;;;;;;4787774;29;20436;-82
2022/03/11 09:55:40;;;;;;;22.70;17.23;;;8.60;99.90;;;;;;4790089;29;20429;-81
2022/03/11 09:58:06;;;;;;;24.83;16.85;;;;;;;;;;4776271;29;20435;-81
2022/03/11 10:00:32;;;;;;;28.15;16.77;;;;;;;;;;4788775;29;20439;-82
2022/03/11 10:02:58;;;;;;;22.67;17.23;;;;;;;;;;4774416;29;20429;-82
2022/03/11 10:05:24;;;;;;;25.08;16.52;;;;;;;;;;4786908;29;20529;-81
2022/03/11 10:08:03;;;;;;;24.98;17.15;;;8.50;99.90;;;;;;4792837;29;20429;-82
2022/03/11 10:10:29;;;;;;;23.98;17.17;;;;;;;;;;4799485;29;20446;-82
2022/03/11 10:12:55;;;;;;;23.08;17.42;;;;;;;;;;4795415;29;20429;-81
2022/03/11 10:15:27;;;;;;;24.40;18.38;;;8.60;99.90;;;;;;4792063;29;20435;-81
2022/03/11 10:17:54;;;;;;;25.75;17.70;;;;;;;;;;4789125;29;20460;-81
2022/03/11 10:20:20;;;;;;;20.33;17.67;;;;;;;;;;4797557;29;20856;-82
2022/03/11 10:22:46;;;;;;;22.05;16.40;;;;;;;;;;4808151;29;20987;-82
2022/03/11 10:25:13;;;;;;;25.50;16.33;;;9.50;99.90;;;;;;4786077;29;20451;-82
2022/03/11 10:28:08;;;;;;;23.80;17.20;;;9.70;99.90;;;;;;4772032;29;20512;-82
2022/03/11 10:30:36;;;;;;;22.67;17.75;;;;;;;;;;4774634;29;20814;-82
2022/03/11 10:33:08;;;;;;;23.00;17.50;;;9.70;99.90;;;;;;4789754;29;20425;-82
2022/03/11 10:35:47;;;;;;;30.02;16.88;;;9.70;99.90;;;;;;4785180;29;20475;-82
2022/03/11 10:38:21;;;;;;;31.23;16.83;;;9.80;99.90;;;;;;4767315;29;20435;-81
2022/03/11 10:40:54;;;;;;;23.27;17.10;;;;;;;;;;4786978;29;20455;-81
2022/03/11 10:43:23;;;;;;;25.67;16.13;;;9.80;99.90;;;;;;4814566;29;20451;-81
2022/03/11 10:46:09;;;;;;;23.33;16.88;;;;;;;;;;4774193;29;20455;-83
2022/03/11 10:48:45;;;;;;;28.42;16.92;;;;;;;;;;4823770;29;20492;-82
2022/03/11 10:51:12;;;;;;;24.15;17.08;;;;;;;;;;4786223;29;20450;-81
2022/03/11 10:53:39;;;;;;;22.50;15.88;;;;;;;;;;4802207;29;20506;-82
2022/03/11 10:56:06;;;;;;;25.10;16.35;;;10.20;99.90;;;;;;4817682;29;20551;-81
2022/03/11 10:58:32;;;;;;;24.40;18.02;;;;;;;;;;4786631;29;20508;-81
2022/03/11 11:00:58;;;;;;;21.35;17.00;;;;;;;;;;4819160;29;20466;-81
2022/03/11 11:03:25;;;;;;;25.17;18.52;;;;;;;;;;4780907;29;21138;-82
2022/03/11 11:05:51;;;;;;;22.92;17.60;;;;;;;;;;4790597;29;20501;-82
2022/03/11 11:08:18;;;;;;;21.77;16.80;;;;;;;;;;4797433;29;20789;-82
2022/03/11 11:10:45;;;;;;;24.65;17.15;;;;;;;;;;4772960;29;20435;-81
2022/03/11 11:13:12;;;;;;;22.73;18.20;;;;;;;;;;4788918;29;20484;-80
2022/03/11 11:15:38;;;;;;;25.88;17.75;;;;;;;;;;4799093;29;20431;-82
2022/03/11 11:18:08;;;;;;;24.83;15.98;;;;;;;;;;4818688;29;20435;-84
2022/03/11 11:20:34;;;;;;;25.70;17.40;;;;;;;;;;4790960;29;20445;-83
2022/03/11 11:23:07;;;;;;;23.10;17.65;;;;;;;;;;4773861;29;20434;-82
2022/03/11 11:25:34;;;;;;;24.42;17.65;;;;;;;;;;4787868;29;20486;-83
2022/03/11 11:28:07;;;;;;;23.83;16.83;;;10.90;99.90;;;;;;4804293;29;20561;-82
2022/03/11 11:30:34;;;;;;;26.45;18.13;;;;;;;;;;4788651;29;20473;-82
2022/03/11 11:33:00;;;;;;;23.13;18.05;;;;;;;;;;4789475;29;20431;-82
2022/03/11 11:35:32;;;;;;;22.83;16.67;;;;;;;;;;4801492;29;20435;-82
2022/03/11 11:38:00;;;;;;;23.20;16.63;;;11.20;99.90;;;;;;4807269;29;20461;-83
2022/03/11 11:40:36;;;;;;;26.60;17.60;;;10.70;99.90;;;;;;4788482;29;20782;-82
2022/03/11 11:43:11;;;;;;;25.00;16.35;;;;;;;;;;4816143;29;20448;-82
2022/03/11 11:45:42;;;;;;;27.03;17.00;;;11.00;99.90;;;;;;4791530;29;20447;-82
2022/03/11 11:48:33;;;;;;;23.05;17.02;;;11.20;99.90;;;;;;4812240;29;20480;-82
2022/03/11 11:51:03;;;;;;;23.77;16.73;;;11.30;99.90;;;;;;4808158;29;20945;-82
2022/03/11 11:53:37;;;;;;;23.60;16.73;;;;;;;;;;4771718;29;20470;-81
2022/03/11 11:56:35;;;;;;;22.98;16.27;;;11.50;99.90;;;;;;4785462;29;20501;-81
2022/03/11 11:59:08;;;;;;;21.73;17.58;;;;;;;;;;4784713;29;20852;-80
2022/03/11 12:01:43;;;;;;;22.90;17.38;;;;;;;;;;4789008;29;20526;-82
2022/03/11 12:04:23;;;;;;;26.90;16.37;;;;;;;;;;4789168;29;20435;-81
2022/03/11 12:06:54;;;;;;;26.67;17.30;;;;;;;;;;4797115;29;20455;-81
2022/03/11 12:09:42;;;;;;;26.38;17.15;;;;;;;;;;4788195;29;20421;-80
2022/03/11 12:12:30;;;;;;;25.42;16.52;;;;;;;;;;4819385;29;20439;-80
2022/03/11 12:17:41;;;;;;;25.80;16.93;;;;;;;;;;4789459;29;20438;-80
2022/03/11 12:20:26;;;;;;;24.05;17.23;;;;;;;;;;4788793;29;20434;-81
2022/03/11 12:22:52;;;;;;;24.17;16.38;;;11.50;99.90;;;;;;4791446;29;20430;-80
2022/03/11 12:25:22;;;;;;;23.15;16.08;;;;;;;;;;4786129;29;20508;-80
2022/03/11 12:28:02;;;;;;;23.08;17.00;;;;;;;;;;4787511;29;20431;-80
2022/03/11 12:30:29;;;;;;;22.00;16.90;;;11.60;99.90;;;;;;4794286;29;20843;-81
2022/03/11 12:32:55;;;;;;;24.07;17.43;;;;;;;;;;4767056;29;20930;-80
2022/03/11 12:35:25;;;;;;;24.27;17.20;;;11.50;99.90;;;;;;4807001;29;20501;-80
2022/03/11 12:37:51;;;;;;;20.88;16.65;;;;;;;;;;4780582;29;20956;-80
2022/03/11 12:40:20;;;;;;;23.52;16.13;;;11.70;99.90;;;;;;4767925;29;20447;-79
2022/03/11 12:42:47;;;;;;;22.43;16.50;;;;;;;;;;4808531;29;20441;-79
2022/03/11 12:45:15;;;;;;;21.83;16.23;;;;;;;;;;4818986;29;20461;-80
2022/03/11 12:47:41;;;;;;;21.80;15.93;;;;;;;;;;4798945;29;20439;-80
2022/03/11 12:50:09;;;;;;;22.13;16.17;;;;;;;;;;4789833;29;20938;-81
2022/03/11 12:52:36;;;;;;;22.20;15.25;;;;;;;;;;4792029;29;20459;-78
2022/03/11 12:55:02;;;;;;;21.98;15.50;;;;;;;;;;4787999;29;20788;-79
2022/03/11 12:57:28;;;;;;;21.77;15.80;;;;;;;;;;4770833;29;20486;-79
2022/03/11 12:59:54;;;;;;;21.90;15.18;;;;;;;;;;4809448;29;20583;-79
2022/03/11 13:02:20;;;;;;;20.90;15.43;;;;;;;;;;4790384;29;20482;-79
2022/03/11 13:04:46;;;;;;;21.43;15.10;;;;;;;;;;4787323;29;20439;-78
2022/03/11 13:07:19;;;;;;;22.80;14.65;;;;;;;;;;4790781;29;20435;-79
2022/03/11 13:09:45;;;;;;;22.25;15.48;;;;;;;;;;4792481;29;20434;-78
2022/03/11 13:12:26;;;;;;;21.92;15.00;;;;;;;;;;4786459;29;20443;-78
2022/03/11 13:15:09;;;;;;;18.77;15.07;;;;;;;;;;4801268;29;20469;-79
2022/03/11 13:17:42;;;;;;;19.77;14.82;;;;;;;;;;4808553;29;20442;-79
2022/03/11 13:20:09;;;;;;;21.07;14.27;;;;;;;;;;4791370;29;20438;-78
2022/03/11 13:22:35;;;;;;;24.58;15.70;;;12.40;97.30;;;;;;4792144;29;20435;-78
2022/03/11 13:25:05;;;;;;;22.83;15.30;;;;;;;;;;4815257;29;20446;-79
2022/03/11 13:27:40;;;;;;;21.77;15.40;;;;;;;;;;4792914;29;20427;-78
2022/03/11 13:30:07;;;;;;;19.58;14.70;;;;;;;;;;4785100;29;20429;-79
2022/03/11 13:32:33;;;;;;;21.52;13.98;;;;;;;;;;4804045;29;20442;-78
2022/03/11 13:34:59;;;;;;;23.10;15.00;;;;;;;;;;4833355;29;20434;-79
2022/03/11 13:37:25;;;;;;;21.45;14.73;;;;;;;;;;4789630;29;20459;-78
2022/03/11 13:40:11;;;;;;;21.55;14.35;;;12.30;97.90;;;;;;4792614;29;20487;-78
2022/03/11 13:42:37;;;;;;;22.88;15.40;;;;;;;;;;4817794;29;20445;-79
2022/03/11 13:45:07;;;;;;;22.98;14.88;;;;;;;;;;4795042;29;20464;-78
2022/03/11 13:47:33;;;;;;;24.43;14.27;;;;;;;;;;4818888;29;20484;-78
2022/03/11 13:50:07;;;;;;;20.40;14.13;;;;;;;;;;4774327;29;20826;-78
2022/03/11 13:52:40;;;;;;;19.80;14.27;;;;;;;;;;4818756;29;20470;-78
2022/03/11 13:55:10;;;;;;;22.33;14.32;;;;;;;;;;4789706;29;20431;-78
2022/03/11 13:57:37;;;;;;;20.35;14.38;;;;;;;;;;4796610;29;20436;-78
2022/03/11 14:00:15;;;;;;;20.60;14.15;;;;;;;;;;4784219;29;20453;-78
2022/03/11 14:02:42;;;;;;;20.08;13.75;;;;;;;;;;4795571;29;20972;-78
2022/03/11 14:05:08;;;;;;;21.58;13.77;;;;;;;;;;4792840;29;20874;-78
2022/03/11 14:07:34;;;;;;;18.33;13.15;;;;;;;;;;4785307;29;20431;-78
2022/03/11 14:10:00;;;;;;;20.92;14.00;;;;;;;;;;4792445;29;20497;-78